Terminal Aerodrome Forecast
Issued by NWS Chicago, IL

Home | Current Version | Previous Version | Text Only | Print | Product List | Glossary Off
Versions: 1 2 3 4 5 6 7 8 9 10 11 12 13 14 15 16 17 18 19 20 21 22 23 24 25 26 27 28

000
FTUS43 KLOT 201720
TAFRFD
TAF
KRFD 201720Z 2018/2118 16014G22KT P6SM SCT035 OVC200
     FM210300 19014G24KT P6SM BKN035 OVC150
     FM210500 21010KT 6SM -SHRA SCT015 OVC035
      TEMPO 2105/2109 3SM SHRA BR SCT008 OVC015
     FM210900 22007KT 3SM BR BKN007 OVC010
     FM211400 31008KT P6SM SCT012=

USA.gov is the U.S. government's official web portal to all federal, state and local government web resources and services.